createdAt,value
2018-08-07T00:00:27.393Z,20.50
2018-08-07T00:02:58.840Z,20.50
2018-08-07T00:05:30.284Z,20.50
2018-08-07T00:08:00.901Z,20.40
2018-08-07T00:10:31.753Z,20.50
2018-08-07T00:13:03.026Z,20.40
2018-08-07T00:15:35.418Z,20.40
2018-08-07T00:18:09.477Z,20.30
2018-08-07T00:20:42.108Z,20.30
2018-08-07T00:23:12.940Z,20.20
2018-08-07T00:25:43.813Z,20.10
2018-08-07T00:28:15.189Z,20.10
2018-08-07T00:30:46.081Z,20.10
2018-08-07T00:33:18.441Z,20.00
2018-08-07T00:35:49.275Z,20.00
2018-08-07T00:38:19.966Z,20.00
2018-08-07T00:40:50.695Z,19.90
2018-08-07T00:43:21.399Z,19.90
2018-08-07T00:45:57.236Z,19.90
2018-08-07T00:58:30.964Z,19.80
2018-08-07T01:01:01.825Z,19.70
2018-08-07T01:03:34.508Z,19.70
2018-08-07T01:06:05.522Z,19.70
2018-08-07T01:08:38.221Z,19.80
2018-08-07T01:11:12.402Z,19.70
2018-08-07T01:13:44.925Z,19.60
2018-08-07T01:16:18.097Z,19.60
2018-08-07T01:22:09.028Z,19.40
2018-08-07T01:24:40.399Z,19.40
2018-08-07T01:27:11.681Z,19.40
2018-08-07T01:29:42.670Z,19.40
2018-08-07T01:32:13.501Z,19.30
2018-08-07T01:34:44.327Z,19.30
2018-08-07T01:37:15.234Z,19.30
2018-08-07T01:39:46.140Z,19.20
2018-08-07T01:42:18.004Z,19.20
2018-08-07T01:44:48.886Z,19.20
2018-08-07T01:47:19.993Z,19.10
2018-08-07T01:49:51.353Z,19.10
2018-08-07T01:52:22.378Z,19.10
2018-08-07T01:58:00.172Z,19.00
2018-08-07T02:00:30.896Z,19.00
2018-08-07T02:03:01.743Z,18.90
2018-08-07T02:08:46.328Z,18.80
2018-08-07T02:11:17.179Z,18.80
2018-08-07T02:13:47.736Z,18.80
2018-08-07T02:16:18.674Z,18.80
2018-08-07T02:18:49.932Z,18.80
2018-08-07T02:21:20.633Z,18.80
2018-08-07T02:23:51.281Z,18.80
2018-08-07T02:26:21.895Z,18.80
2018-08-07T02:28:52.535Z,18.70
2018-08-07T02:31:23.253Z,18.70
2018-08-07T02:33:56.162Z,18.70
2018-08-07T02:36:43.704Z,18.70
2018-08-07T02:39:21.511Z,18.70
2018-08-07T02:44:28.492Z,18.70
2018-08-07T02:46:59.618Z,18.60
2018-08-07T02:49:31.687Z,18.60
2018-08-07T02:52:02.583Z,18.60
2018-08-07T02:54:33.912Z,18.70
2018-08-07T02:57:04.690Z,18.70
2018-08-07T02:59:35.381Z,18.80
2018-08-07T03:02:06.114Z,18.80
2018-08-07T03:04:36.937Z,18.80
2018-08-07T03:07:11.879Z,18.80
2018-08-07T03:09:43.223Z,18.70
2018-08-07T03:12:15.580Z,18.70
2018-08-07T03:14:49.224Z,18.20
2018-08-07T03:17:22.660Z,17.50
2018-08-07T03:19:56.980Z,17.10
2018-08-07T03:25:37.009Z,16.80
2018-08-07T03:28:10.323Z,16.60
2018-08-07T03:30:43.333Z,16.50
2018-08-07T03:33:16.769Z,16.50
2018-08-07T03:36:34.208Z,16.40
2018-08-07T03:41:38.637Z,16.40
2018-08-07T03:46:49.601Z,16.50
2018-08-07T03:49:24.293Z,16.50
2018-08-07T03:52:06.975Z,16.30
2018-08-07T03:54:43.105Z,16.10
2018-08-07T03:57:15.732Z,16.00
2018-08-07T03:59:48.913Z,15.90
2018-08-07T04:02:24.598Z,15.90
2018-08-07T04:04:59.567Z,15.80
2018-08-07T04:07:32.225Z,15.80
2018-08-07T04:10:04.895Z,15.70
2018-08-07T04:12:37.635Z,15.70
2018-08-07T04:15:12.561Z,15.70
2018-08-07T04:17:45.735Z,15.60
2018-08-07T04:20:20.743Z,15.60
2018-08-07T04:22:53.379Z,15.60
2018-08-07T04:25:25.914Z,15.60
2018-08-07T04:27:58.600Z,15.60
2018-08-07T04:30:31.204Z,15.50
2018-08-07T04:33:03.824Z,15.50
2018-08-07T04:35:36.446Z,15.50
2018-08-07T04:38:09.118Z,15.40
2018-08-07T04:40:41.785Z,15.40
2018-08-07T04:43:14.340Z,15.40
2018-08-07T04:45:46.986Z,15.40
2018-08-07T04:48:19.565Z,15.40
2018-08-07T04:50:52.591Z,15.40
2018-08-07T04:53:25.216Z,15.40
2018-08-07T04:55:57.919Z,15.50
2018-08-07T04:58:30.591Z,15.40
2018-08-07T05:01:03.558Z,15.50
2018-08-07T05:03:36.632Z,15.50
2018-08-07T05:06:09.391Z,15.40
2018-08-07T05:08:42.060Z,15.40
2018-08-07T05:11:14.679Z,15.40
2018-08-07T05:13:47.348Z,15.40
2018-08-07T05:16:19.946Z,15.40
2018-08-07T05:21:59.880Z,15.40
2018-08-07T05:24:32.542Z,15.40
2018-08-07T05:27:04.812Z,15.40
2018-08-07T05:32:57.706Z,15.40
2018-08-07T05:35:29.813Z,15.40
2018-08-07T05:38:01.941Z,15.40
2018-08-07T05:40:34.017Z,15.30
2018-08-07T05:43:06.093Z,15.40
2018-08-07T05:45:38.164Z,15.40
2018-08-07T05:51:41.818Z,15.50
2018-08-07T05:54:14.168Z,15.40
2018-08-07T05:56:46.390Z,15.40
2018-08-07T05:59:18.564Z,15.40
2018-08-07T06:01:50.887Z,15.40
2018-08-07T06:04:23.306Z,15.40
2018-08-07T06:06:55.605Z,15.40
2018-08-07T06:09:27.795Z,15.40
2018-08-07T06:12:00.070Z,15.40
2018-08-07T06:14:32.753Z,15.30
2018-08-07T06:17:05.317Z,15.30
2018-08-07T06:19:38.074Z,15.30
2018-08-07T06:22:10.672Z,15.40
2018-08-07T06:24:42.949Z,15.30
2018-08-07T06:27:15.379Z,15.30
2018-08-07T06:33:19.155Z,15.30
2018-08-07T06:35:51.398Z,15.30
2018-08-07T06:38:23.823Z,15.30
2018-08-07T06:40:56.097Z,15.30
2018-08-07T06:43:28.538Z,15.20
2018-08-07T06:46:00.894Z,15.30
2018-08-07T06:48:33.225Z,15.20
2018-08-07T06:51:05.574Z,15.20
2018-08-07T06:53:38.246Z,15.30
2018-08-07T06:56:10.812Z,15.30
2018-08-07T06:59:18.600Z,15.20
2018-08-07T07:01:51.430Z,15.30
2018-08-07T07:04:24.294Z,15.30
2018-08-07T07:06:57.253Z,15.30
2018-08-07T07:09:30.209Z,15.20
2018-08-07T07:12:07.049Z,15.20
2018-08-07T07:14:41.851Z,15.20
2018-08-07T07:17:18.783Z,15.20
2018-08-07T07:19:53.882Z,15.20
2018-08-07T07:22:29.524Z,15.10
2018-08-07T07:25:05.171Z,15.20
2018-08-07T07:27:38.043Z,15.10
2018-08-07T07:30:14.718Z,15.20
2018-08-07T07:32:49.376Z,15.30
2018-08-07T07:35:22.416Z,15.30
2018-08-07T07:37:55.813Z,15.30
2018-08-07T07:40:28.767Z,15.20
2018-08-07T07:43:01.593Z,15.10
2018-08-07T07:45:34.432Z,15.10
2018-08-07T07:48:07.568Z,15.10
2018-08-07T07:50:40.361Z,15.10
2018-08-07T07:53:13.414Z,15.10
2018-08-07T07:55:46.314Z,15.00
2018-08-07T07:58:19.306Z,15.10
2018-08-07T08:00:52.251Z,15.00
2018-08-07T08:03:25.213Z,15.00
2018-08-07T08:05:58.222Z,15.00
2018-08-07T08:08:31.135Z,15.00
2018-08-07T08:11:04.051Z,15.00
2018-08-07T08:13:37.030Z,14.90
2018-08-07T08:18:41.563Z,14.90
2018-08-07T08:21:14.471Z,15.00
2018-08-07T08:23:47.643Z,14.90
2018-08-07T08:26:20.472Z,15.00
2018-08-07T08:28:53.491Z,14.90
2018-08-07T08:31:26.600Z,14.90
2018-08-07T08:33:59.241Z,14.90
2018-08-07T08:36:31.759Z,14.90
2018-08-07T08:39:04.659Z,14.90
2018-08-07T08:41:37.024Z,14.80
2018-08-07T08:44:09.940Z,14.90
2018-08-07T08:50:12.120Z,14.90
2018-08-07T08:52:45.158Z,14.90
2018-08-07T08:55:17.637Z,14.90
2018-08-07T08:57:50.145Z,14.90
2018-08-07T09:00:28.479Z,14.90
2018-08-07T09:03:02.049Z,14.90
2018-08-07T09:05:34.789Z,14.90
2018-08-07T09:11:31.301Z,14.80
2018-08-07T09:14:03.629Z,14.80
2018-08-07T09:16:35.905Z,14.90
2018-08-07T09:19:08.585Z,14.90
2018-08-07T09:21:41.066Z,14.90
2018-08-07T09:24:14.013Z,14.90
2018-08-07T09:26:46.635Z,14.90
2018-08-07T09:29:18.943Z,14.80
2018-08-07T09:31:51.369Z,14.80
2018-08-07T09:34:23.846Z,14.80
2018-08-07T09:36:56.282Z,14.80
2018-08-07T09:39:28.951Z,14.80
2018-08-07T09:42:01.575Z,14.70
2018-08-07T09:44:33.950Z,14.60
2018-08-07T09:47:06.436Z,14.50
2018-08-07T09:49:38.708Z,14.50
2018-08-07T09:52:11.147Z,14.50
2018-08-07T09:54:43.426Z,14.40
2018-08-07T09:57:15.666Z,14.40
2018-08-07T09:59:48.472Z,14.40
2018-08-07T10:02:26.380Z,14.40
2018-08-07T10:04:58.675Z,14.40
2018-08-07T10:07:31.185Z,14.40
2018-08-07T10:10:03.457Z,14.40
2018-08-07T10:12:36.017Z,14.50
2018-08-07T10:15:09.223Z,14.50
2018-08-07T10:17:41.562Z,14.50
2018-08-07T10:20:14.270Z,14.50
2018-08-07T10:22:46.881Z,14.50
2018-08-07T10:25:21.642Z,14.60
2018-08-07T10:27:54.137Z,14.60
2018-08-07T10:30:27.648Z,14.70
2018-08-07T10:32:59.949Z,14.70
2018-08-07T10:35:32.351Z,14.80
2018-08-07T10:38:04.730Z,14.80
2018-08-07T10:40:37.191Z,15.00
2018-08-07T10:43:09.838Z,15.10
2018-08-07T10:45:42.245Z,15.20
2018-08-07T10:48:14.585Z,15.20
2018-08-07T10:50:46.930Z,15.30
2018-08-07T10:53:19.253Z,15.30
2018-08-07T10:55:52.274Z,15.40
2018-08-07T10:58:24.722Z,15.30
2018-08-07T11:00:57.151Z,15.30
2018-08-07T11:03:29.546Z,15.10
2018-08-07T11:06:01.877Z,15.00
2018-08-07T11:08:34.378Z,15.00
2018-08-07T11:11:06.734Z,15.00
2018-08-07T11:13:39.460Z,14.90
2018-08-07T11:19:32.889Z,15.00
2018-08-07T11:22:05.280Z,15.10
2018-08-07T11:24:37.801Z,15.10
2018-08-07T11:27:10.485Z,15.10
2018-08-07T11:29:42.953Z,15.10
2018-08-07T11:32:15.328Z,15.10
2018-08-07T11:34:47.865Z,15.10
2018-08-07T11:37:20.385Z,15.20
2018-08-07T11:39:55.383Z,15.10
2018-08-07T11:45:48.587Z,15.20
2018-08-07T11:48:21.051Z,15.20
2018-08-07T11:50:53.281Z,15.30
2018-08-07T11:53:25.615Z,15.30
2018-08-07T11:55:58.352Z,15.40
2018-08-07T11:58:30.853Z,15.40
2018-08-07T12:01:03.103Z,15.40
2018-08-07T12:03:35.528Z,15.40
2018-08-07T12:09:28.918Z,15.60
2018-08-07T12:12:01.304Z,15.60
2018-08-07T12:14:33.744Z,15.60
2018-08-07T12:17:06.158Z,15.60
2018-08-07T12:19:38.556Z,15.60
2018-08-07T12:22:11.155Z,15.70
2018-08-07T12:24:44.165Z,15.70
2018-08-07T12:27:16.913Z,15.90
2018-08-07T12:29:49.363Z,16.10
2018-08-07T12:32:21.812Z,16.20
2018-08-07T12:34:54.259Z,16.50
2018-08-07T12:37:26.622Z,16.70
2018-08-07T12:39:59.044Z,16.90
2018-08-07T12:42:31.504Z,17.10
2018-08-07T12:45:04.731Z,17.20
2018-08-07T12:48:22.103Z,17.40
2018-08-07T12:50:54.453Z,17.40
2018-08-07T12:53:26.746Z,17.60
2018-08-07T12:55:59.102Z,17.70
2018-08-07T12:58:31.983Z,17.80
2018-08-07T13:01:04.375Z,18.10
2018-08-07T13:03:38.327Z,18.30
2018-08-07T13:06:10.867Z,18.50
2018-08-07T13:08:42.195Z,18.90
2018-08-07T13:11:12.836Z,18.80
2018-08-07T13:13:43.416Z,18.80
2018-08-07T13:16:14.293Z,19.00
2018-08-07T13:18:44.985Z,19.30
2018-08-07T13:21:15.637Z,19.50
2018-08-07T13:23:46.144Z,20.00
2018-08-07T13:26:17.034Z,19.90
2018-08-07T13:28:47.671Z,19.90
2018-08-07T13:31:18.207Z,20.00
2018-08-07T13:33:49.023Z,20.00
2018-08-07T13:36:19.604Z,19.90
2018-08-07T13:38:50.463Z,19.90
2018-08-07T13:41:22.493Z,20.10
2018-08-07T13:43:53.408Z,20.10
2018-08-07T13:46:24.228Z,20.30
2018-08-07T13:48:55.157Z,20.40
2018-08-07T13:51:25.935Z,20.50
2018-08-07T13:53:56.496Z,20.60
2018-08-07T13:56:27.026Z,20.80
2018-08-07T13:58:57.708Z,20.60
2018-08-07T14:01:28.340Z,20.60
2018-08-07T14:03:59.109Z,21.10
2018-08-07T14:06:29.751Z,21.50
2018-08-07T14:09:00.440Z,21.20
2018-08-07T14:11:31.628Z,21.30
2018-08-07T14:14:02.186Z,21.40
2018-08-07T14:16:32.810Z,21.50
2018-08-07T14:19:03.632Z,21.50
2018-08-07T14:21:34.227Z,22.00
2018-08-07T14:24:05.001Z,21.90
2018-08-07T14:26:36.092Z,22.00
2018-08-07T14:29:06.855Z,22.10
2018-08-07T14:31:37.553Z,22.60
2018-08-07T14:34:08.295Z,22.70
2018-08-07T14:36:38.984Z,22.80
2018-08-07T14:39:10.948Z,22.80
2018-08-07T14:41:41.578Z,22.90
2018-08-07T14:44:12.235Z,22.70
2018-08-07T14:46:44.631Z,22.90
2018-08-07T14:49:15.345Z,22.80
2018-08-07T14:51:45.960Z,23.00
2018-08-07T14:54:16.514Z,22.70
2018-08-07T14:56:47.163Z,22.50
2018-08-07T14:59:19.029Z,22.50
2018-08-07T15:01:54.975Z,22.80
2018-08-07T15:04:27.348Z,23.10
2018-08-07T15:06:57.921Z,23.40
2018-08-07T15:09:28.572Z,22.90
2018-08-07T15:11:59.133Z,23.40
2018-08-07T15:14:29.808Z,23.30
2018-08-07T15:17:02.115Z,23.60
2018-08-07T15:19:34.783Z,24.30
2018-08-07T15:22:07.874Z,24.40
2018-08-07T15:24:41.076Z,24.10
2018-08-07T15:27:13.446Z,23.70
2018-08-07T15:29:45.807Z,24.00
2018-08-07T15:32:18.181Z,24.30
2018-08-07T15:34:50.641Z,23.80
2018-08-07T15:37:23.066Z,22.60
2018-08-07T15:39:55.470Z,22.30
2018-08-07T15:42:28.405Z,21.80
2018-08-07T15:45:00.910Z,21.60
2018-08-07T15:47:33.240Z,21.90
2018-08-07T15:50:06.588Z,22.30
2018-08-07T15:52:39.173Z,22.30
2018-08-07T15:55:11.977Z,22.90
2018-08-07T15:57:45.225Z,22.10
2018-08-07T16:00:28.512Z,21.90
2018-08-07T16:03:04.077Z,21.60
2018-08-07T16:05:36.458Z,21.60
2018-08-07T16:08:08.904Z,21.60
2018-08-07T16:10:41.429Z,23.40
2018-08-07T16:13:14.631Z,24.50
2018-08-07T16:15:47.951Z,25.30
2018-08-07T16:18:20.642Z,25.50
2018-08-07T16:20:52.882Z,25.20
2018-08-07T16:23:25.299Z,24.70
2018-08-07T16:25:57.688Z,25.40
2018-08-07T16:28:31.152Z,26.00
2018-08-07T16:31:03.437Z,25.10
2018-08-07T16:33:35.904Z,24.60
2018-08-07T16:36:09.045Z,24.50
2018-08-07T16:38:41.707Z,24.40
2018-08-07T16:41:14.154Z,24.90
2018-08-07T16:43:46.538Z,24.20
2018-08-07T16:46:19.135Z,24.30
2018-08-07T16:48:51.656Z,24.60
2018-08-07T16:51:25.081Z,24.70
2018-08-07T16:53:57.579Z,24.80
2018-08-07T16:56:31.845Z,24.60
2018-08-07T16:59:04.301Z,25.10
2018-08-07T17:01:37.783Z,25.20
2018-08-07T17:07:31.267Z,25.40
2018-08-07T17:10:03.737Z,24.50
2018-08-07T17:12:36.211Z,24.20
2018-08-07T17:15:11.722Z,24.50
2018-08-07T17:17:44.984Z,23.90
2018-08-07T17:20:19.600Z,23.20
2018-08-07T17:22:53.107Z,23.90
2018-08-07T17:25:27.098Z,23.90
2018-08-07T17:28:00.640Z,24.50
2018-08-07T17:30:35.760Z,24.50
2018-08-07T17:33:10.874Z,24.80
2018-08-07T17:35:45.747Z,25.20
2018-08-07T17:38:20.107Z,24.90
2018-08-07T17:40:56.762Z,24.60
2018-08-07T17:43:33.323Z,24.50
2018-08-07T17:46:10.026Z,24.50
2018-08-07T17:48:44.328Z,25.80
2018-08-07T17:51:21.164Z,25.60
2018-08-07T17:53:55.591Z,25.10
2018-08-07T17:56:29.163Z,25.20
2018-08-07T17:59:02.133Z,25.50
2018-08-07T18:01:34.996Z,25.50
2018-08-07T18:04:08.642Z,25.70
2018-08-07T18:06:42.152Z,25.70
2018-08-07T18:09:22.903Z,24.50
2018-08-07T18:11:55.880Z,24.00
2018-08-07T18:14:30.118Z,24.00
2018-08-07T18:17:03.900Z,24.00
2018-08-07T18:19:36.788Z,24.00
2018-08-07T18:22:12.802Z,24.30
2018-08-07T18:24:48.485Z,24.20
2018-08-07T18:27:26.476Z,24.40
2018-08-07T18:30:10.924Z,24.80
2018-08-07T18:32:49.391Z,24.70
2018-08-07T18:35:26.484Z,25.10
2018-08-07T18:38:00.721Z,25.00
2018-08-07T18:40:34.385Z,25.10
2018-08-07T18:43:07.441Z,24.80
2018-08-07T18:45:40.506Z,24.00
2018-08-07T18:48:13.749Z,23.80
2018-08-07T18:54:07.425Z,24.60
2018-08-07T18:56:40.173Z,24.30
2018-08-07T19:01:44.207Z,25.40
2018-08-07T19:04:18.091Z,26.40
2018-08-07T19:06:52.718Z,26.40
2018-08-07T19:11:58.715Z,25.40
2018-08-07T19:17:04.131Z,24.30
2018-08-07T19:19:37.515Z,25.40
2018-08-07T19:22:10.343Z,26.20
2018-08-07T19:24:43.114Z,25.80
2018-08-07T19:27:19.623Z,25.60
2018-08-07T19:29:52.569Z,25.80
2018-08-07T19:32:25.413Z,25.80
2018-08-07T19:34:58.170Z,25.40
2018-08-07T19:37:30.892Z,26.10
2018-08-07T19:40:04.361Z,25.80
2018-08-07T19:45:15.712Z,25.40
2018-08-07T19:48:07.858Z,24.60
2018-08-07T19:50:48.239Z,25.50
2018-08-07T19:53:30.558Z,25.90
2018-08-07T19:56:03.534Z,25.90
2018-08-07T19:58:50.411Z,25.60
2018-08-07T20:01:29.772Z,25.10
2018-08-07T20:04:09.425Z,24.40
2018-08-07T20:06:48.335Z,23.90
2018-08-07T20:09:22.968Z,24.30
2018-08-07T20:14:34.696Z,24.10
2018-08-07T20:17:08.190Z,24.90
2018-08-07T20:19:41.098Z,25.60
2018-08-07T20:22:18.809Z,25.30
2018-08-07T20:24:51.579Z,24.70
2018-08-07T20:27:29.151Z,23.90
2018-08-07T20:30:02.845Z,23.30
2018-08-07T20:32:37.364Z,23.60
2018-08-07T20:35:11.002Z,24.20
2018-08-07T20:37:44.687Z,24.90
2018-08-07T20:42:53.684Z,25.50
2018-08-07T20:45:26.442Z,25.40
2018-08-07T20:47:59.424Z,25.20
2018-08-07T20:50:32.812Z,25.30
2018-08-07T20:56:36.283Z,24.30
2018-08-07T20:59:08.827Z,23.60
2018-08-07T21:01:44.294Z,23.90
2018-08-07T21:04:16.711Z,24.50
2018-08-07T21:06:49.372Z,24.90
2018-08-07T21:09:21.937Z,24.40
2018-08-07T21:11:55.632Z,23.70
2018-08-07T21:14:28.222Z,24.00
2018-08-07T21:17:01.295Z,24.30
2018-08-07T21:19:34.178Z,24.10
2018-08-07T21:22:06.752Z,24.10
2018-08-07T21:24:39.225Z,24.60
2018-08-07T21:27:11.922Z,24.60
2018-08-07T21:33:05.374Z,24.10
2018-08-07T21:35:37.923Z,23.80
2018-08-07T21:38:10.505Z,23.70
2018-08-07T21:40:43.712Z,23.70
2018-08-07T21:43:16.276Z,24.00
2018-08-07T21:45:48.819Z,24.20
2018-08-07T21:48:21.311Z,24.20
2018-08-07T21:50:53.732Z,23.90
2018-08-07T21:53:26.482Z,23.80
2018-08-07T21:55:59.838Z,24.30
2018-08-07T21:58:33.741Z,24.40
2018-08-07T22:01:06.856Z,24.20
2018-08-07T22:03:41.328Z,24.00
2018-08-07T22:06:14.121Z,23.50
2018-08-07T22:08:51.071Z,23.20
2018-08-07T22:11:25.877Z,23.50
2018-08-07T22:13:58.402Z,23.90
2018-08-07T22:16:32.226Z,23.70
2018-08-07T22:19:06.119Z,23.30
2018-08-07T22:21:44.772Z,23.30
2018-08-07T22:24:18.560Z,23.20
2018-08-07T22:26:52.930Z,23.80
2018-08-07T22:29:25.531Z,24.10
2018-08-07T22:31:58.605Z,23.70
2018-08-07T22:34:35.157Z,23.60
2018-08-07T22:37:10.465Z,23.40
2018-08-07T22:39:44.836Z,23.20
2018-08-07T22:42:17.794Z,23.20
2018-08-07T22:44:51.776Z,23.10
2018-08-07T22:47:25.515Z,22.90
2018-08-07T22:49:58.180Z,22.70
2018-08-07T22:52:32.957Z,22.60
2018-08-07T22:55:12.346Z,22.50
2018-08-07T22:57:47.968Z,22.50
2018-08-07T23:00:22.117Z,22.30
2018-08-07T23:02:55.511Z,22.10
2018-08-07T23:05:35.004Z,22.10
2018-08-07T23:08:08.439Z,22.00
2018-08-07T23:10:40.929Z,21.90
2018-08-07T23:13:13.377Z,21.90
2018-08-07T23:15:47.244Z,21.90
2018-08-07T23:18:20.048Z,21.80
2018-08-07T23:20:52.394Z,21.70
2018-08-07T23:23:24.898Z,21.60
2018-08-07T23:25:58.236Z,21.60
2018-08-07T23:28:31.642Z,21.40
2018-08-07T23:31:08.567Z,21.30
2018-08-07T23:36:32.124Z,21.10
2018-08-07T23:39:09.358Z,21.10
2018-08-07T23:41:45.431Z,21.10
2018-08-07T23:44:21.610Z,21.00
2018-08-07T23:46:56.237Z,20.90
2018-08-07T23:49:53.585Z,20.90
2018-08-07T23:52:29.811Z,20.80
2018-08-07T23:57:55.181Z,20.70
